createdAt,value
2018-07-28T00:00:15.973Z,23.35
2018-07-28T00:02:43.167Z,23.35
2018-07-28T00:05:11.215Z,23.34
2018-07-28T00:07:38.488Z,23.26
2018-07-28T00:10:10.844Z,23.26
2018-07-28T00:12:38.118Z,23.09
2018-07-28T00:15:15.112Z,23.07
2018-07-28T00:17:43.034Z,23.04
2018-07-28T00:20:11.486Z,23.05
2018-07-28T00:22:38.868Z,23.02
2018-07-28T00:25:07.570Z,23.02
2018-07-28T00:27:34.893Z,23.05
2018-07-28T00:30:02.127Z,23.06
2018-07-28T00:32:29.436Z,23.07
2018-07-28T00:35:00.708Z,22.17
2018-07-28T00:37:27.871Z,22.89
2018-07-28T00:39:55.129Z,22.62
2018-07-28T00:42:22.353Z,22.47
2018-07-28T00:44:49.591Z,22.52
2018-07-28T00:47:16.843Z,22.49
2018-07-28T00:49:44.122Z,22.49
2018-07-28T00:52:11.382Z,22.51
2018-07-28T00:54:38.818Z,22.54
2018-07-28T00:57:05.994Z,22.55
2018-07-28T00:59:33.311Z,22.60
2018-07-28T01:02:00.537Z,22.68
2018-07-28T01:04:27.816Z,22.80
2018-07-28T01:06:55.041Z,22.83
2018-07-28T01:09:22.262Z,22.82
2018-07-28T01:11:49.571Z,22.87
2018-07-28T01:14:16.825Z,22.98
2018-07-28T01:16:44.082Z,23.04
2018-07-28T01:19:11.347Z,23.04
2018-07-28T01:21:38.575Z,23.06
2018-07-28T01:24:06.378Z,23.05
2018-07-28T01:26:33.657Z,23.12
2018-07-28T01:29:06.574Z,23.14
2018-07-28T01:31:33.833Z,23.25
2018-07-28T01:34:01.147Z,23.22
2018-07-28T01:36:28.348Z,23.20
2018-07-28T01:38:55.629Z,23.16
2018-07-28T01:41:22.851Z,23.23
2018-07-28T01:43:50.150Z,23.21
2018-07-28T01:46:17.366Z,23.23
2018-07-28T01:48:44.674Z,23.04
2018-07-28T01:51:11.898Z,22.91
2018-07-28T01:53:39.087Z,22.48
2018-07-28T01:56:06.516Z,22.24
2018-07-28T01:58:33.689Z,22.29
2018-07-28T02:01:00.962Z,22.24
2018-07-28T02:03:28.173Z,22.25
2018-07-28T02:05:55.432Z,22.24
2018-07-28T02:08:22.713Z,22.28
2018-07-28T02:10:49.979Z,22.25
2018-07-28T02:13:17.275Z,22.27
2018-07-28T02:15:44.548Z,22.27
2018-07-28T02:18:11.794Z,22.22
2018-07-28T02:20:39.112Z,22.26
2018-07-28T02:23:06.327Z,22.25
2018-07-28T02:25:33.540Z,22.12
2018-07-28T02:28:00.781Z,22.13
2018-07-28T02:30:28.180Z,22.02
2018-07-28T02:32:55.372Z,21.99
2018-07-28T02:35:22.617Z,21.93
2018-07-28T02:37:50.176Z,21.89
2018-07-28T02:40:17.404Z,21.87
2018-07-28T02:42:44.715Z,21.85
2018-07-28T02:45:11.901Z,21.82
2018-07-28T02:47:39.127Z,21.82
2018-07-28T02:50:06.807Z,21.72
2018-07-28T02:52:34.055Z,21.59
2018-07-28T02:55:01.270Z,21.55
2018-07-28T02:57:28.503Z,21.51
2018-07-28T02:59:55.740Z,21.43
2018-07-28T03:02:22.972Z,21.33
2018-07-28T03:04:50.212Z,21.33
2018-07-28T03:07:17.486Z,21.30
2018-07-28T03:09:44.712Z,21.34
2018-07-28T03:12:12.145Z,21.50
2018-07-28T03:14:39.438Z,21.66
2018-07-28T03:17:06.752Z,21.82
2018-07-28T03:19:34.001Z,21.98
2018-07-28T03:22:01.207Z,22.13
2018-07-28T03:24:28.472Z,22.22
2018-07-28T03:26:55.720Z,22.25
2018-07-28T03:29:22.938Z,22.28
2018-07-28T03:31:53.618Z,22.32
2018-07-28T03:34:20.878Z,22.34
2018-07-28T03:36:51.189Z,22.36
2018-07-28T03:39:18.399Z,22.37
2018-07-28T03:41:45.760Z,22.38
2018-07-28T03:44:12.982Z,22.42
2018-07-28T03:46:40.309Z,22.41
2018-07-28T03:49:07.553Z,22.47
2018-07-28T03:51:34.721Z,22.51
2018-07-28T03:54:01.934Z,22.58
2018-07-28T03:56:29.147Z,22.57
2018-07-28T03:58:56.396Z,22.57
2018-07-28T04:01:23.617Z,22.57
2018-07-28T04:03:50.852Z,22.57
2018-07-28T04:06:18.088Z,22.42
2018-07-28T04:08:45.517Z,22.29
2018-07-28T04:11:12.708Z,22.24
2018-07-28T04:13:39.921Z,21.25
2018-07-28T04:16:07.084Z,21.12
2018-07-28T04:18:34.444Z,21.28
2018-07-28T04:21:01.655Z,21.31
2018-07-28T04:23:28.881Z,21.52
2018-07-28T04:25:56.086Z,21.72
2018-07-28T04:28:23.265Z,21.73
2018-07-28T04:30:50.481Z,21.91
2018-07-28T04:33:17.631Z,22.03
2018-07-28T04:35:44.860Z,22.20
2018-07-28T04:38:12.033Z,22.38
2018-07-28T04:40:39.311Z,22.52
2018-07-28T04:43:06.542Z,22.72
2018-07-28T04:45:33.887Z,22.83
2018-07-28T04:48:01.059Z,22.84
2018-07-28T04:50:28.306Z,22.95
2018-07-28T04:52:55.503Z,23.08
2018-07-28T04:55:22.765Z,23.17
2018-07-28T04:57:49.952Z,23.29
2018-07-28T05:00:17.221Z,23.40
2018-07-28T05:02:44.462Z,23.47
2018-07-28T05:05:11.635Z,23.54
2018-07-28T05:07:39.014Z,23.53
2018-07-28T05:10:06.183Z,23.50
2018-07-28T05:12:33.361Z,23.53
2018-07-28T05:15:00.922Z,23.59
2018-07-28T05:17:28.203Z,23.32
2018-07-28T05:19:55.396Z,23.16
2018-07-28T05:22:22.692Z,22.95
2018-07-28T05:24:49.992Z,22.83
2018-07-28T05:27:17.188Z,22.75
2018-07-28T05:29:44.388Z,22.47
2018-07-28T05:32:11.723Z,22.91
2018-07-28T05:34:38.962Z,23.07
2018-07-28T05:37:06.167Z,23.28
2018-07-28T05:39:33.378Z,23.51
2018-07-28T05:42:01.036Z,23.66
2018-07-28T05:44:28.287Z,23.93
2018-07-28T05:46:55.503Z,23.98
2018-07-28T05:49:22.679Z,24.24
2018-07-28T05:51:49.881Z,24.38
2018-07-28T05:54:17.132Z,24.57
2018-07-28T05:56:44.358Z,24.87
2018-07-28T05:59:11.635Z,24.91
2018-07-28T06:01:38.913Z,24.83
2018-07-28T06:04:06.214Z,24.91
2018-07-28T06:06:33.545Z,25.15
2018-07-28T06:09:00.703Z,25.47
2018-07-28T06:11:28.001Z,25.72
2018-07-28T06:13:55.235Z,25.73
2018-07-28T06:16:22.627Z,25.76
2018-07-28T06:18:49.908Z,25.96
2018-07-28T06:21:17.251Z,26.12
2018-07-28T06:23:44.436Z,26.25
2018-07-28T06:26:11.725Z,26.32
2018-07-28T06:28:38.912Z,26.30
2018-07-28T06:31:06.293Z,26.36
2018-07-28T06:33:33.480Z,26.29
2018-07-28T06:36:01.601Z,26.13
2018-07-28T06:38:28.788Z,25.90
2018-07-28T06:40:56.019Z,25.73
2018-07-28T06:43:23.349Z,25.78
2018-07-28T06:45:50.582Z,25.34
2018-07-28T06:48:17.812Z,25.47
2018-07-28T06:50:44.998Z,25.34
2018-07-28T06:53:12.305Z,25.40
2018-07-28T06:55:39.605Z,25.24
2018-07-28T06:58:06.866Z,25.24
2018-07-28T07:00:34.241Z,25.26
2018-07-28T07:03:01.564Z,25.15
2018-07-28T07:05:28.789Z,25.04
2018-07-28T07:07:55.936Z,24.92
2018-07-28T07:10:23.543Z,24.88
2018-07-28T07:12:50.834Z,24.79
2018-07-28T07:15:18.008Z,24.65
2018-07-28T07:17:45.275Z,24.67
2018-07-28T07:20:12.541Z,24.59
2018-07-28T07:22:39.794Z,24.66
2018-07-28T07:25:07.198Z,24.79
2018-07-28T07:27:34.374Z,24.91
2018-07-28T07:30:01.675Z,24.90
2018-07-28T07:32:29.046Z,24.72
2018-07-28T07:34:56.457Z,24.53
2018-07-28T07:37:23.705Z,24.47
2018-07-28T07:39:50.953Z,24.47
2018-07-28T07:42:18.195Z,24.46
2018-07-28T07:44:45.492Z,24.40
2018-07-28T07:47:12.910Z,24.42
2018-07-28T07:49:40.170Z,24.43
2018-07-28T07:52:07.439Z,24.57
2018-07-28T07:54:44.563Z,24.64
2018-07-28T07:57:23.201Z,24.69
2018-07-28T07:59:50.819Z,24.82
2018-07-28T08:02:18.076Z,24.96
2018-07-28T08:04:45.245Z,24.72
2018-07-28T08:07:12.537Z,24.52
2018-07-28T08:09:39.765Z,24.36
2018-07-28T08:12:07.209Z,24.21
2018-07-28T08:14:34.434Z,24.27
2018-07-28T08:17:04.101Z,24.44
2018-07-28T08:19:31.335Z,24.64
2018-07-28T08:21:58.591Z,24.78
2018-07-28T08:24:25.791Z,24.87
2018-07-28T08:26:53.298Z,24.90
2018-07-28T08:29:20.381Z,25.00
2018-07-28T08:31:47.578Z,25.26
2018-07-28T08:34:14.799Z,25.21
2018-07-28T08:36:42.207Z,25.20
2018-07-28T08:39:11.804Z,25.21
2018-07-28T08:41:39.426Z,25.33
2018-07-28T08:44:06.694Z,25.34
2018-07-28T08:46:34.018Z,25.38
2018-07-28T08:49:01.270Z,25.50
2018-07-28T08:51:28.575Z,25.74
2018-07-28T08:53:55.813Z,25.97
2018-07-28T08:56:23.078Z,26.02
2018-07-28T08:58:50.320Z,26.15
2018-07-28T09:01:17.536Z,26.35
2018-07-28T09:03:44.719Z,26.51
2018-07-28T09:06:11.978Z,26.52
2018-07-28T09:08:39.167Z,26.15
2018-07-28T09:11:06.531Z,26.13
2018-07-28T09:13:33.764Z,26.23
2018-07-28T09:16:00.898Z,26.16
2018-07-28T09:18:28.166Z,26.32
2018-07-28T09:20:55.378Z,26.10
2018-07-28T09:23:22.637Z,25.90
2018-07-28T09:25:49.835Z,25.86
2018-07-28T09:28:17.025Z,25.77
2018-07-28T09:30:44.387Z,25.83
2018-07-28T09:33:11.706Z,25.84
2018-07-28T09:35:38.987Z,25.78
2018-07-28T09:38:06.454Z,25.86
2018-07-28T09:40:33.769Z,25.78
2018-07-28T09:43:01.029Z,25.84
2018-07-28T09:45:28.250Z,25.83
2018-07-28T09:47:55.515Z,25.93
2018-07-28T09:50:22.745Z,26.12
2018-07-28T09:52:49.929Z,26.37
2018-07-28T09:55:17.161Z,26.56
2018-07-28T09:57:44.353Z,26.65
2018-07-28T10:00:15.592Z,26.71
2018-07-28T10:02:42.877Z,26.71
2018-07-28T10:05:10.138Z,26.92
2018-07-28T10:07:37.409Z,27.21
2018-07-28T10:10:04.699Z,27.63
2018-07-28T10:12:31.915Z,28.34
2018-07-28T10:14:59.399Z,28.66
2018-07-28T10:17:26.560Z,28.99
2018-07-28T10:19:53.787Z,28.80
2018-07-28T10:22:21.040Z,28.49
2018-07-28T10:24:48.293Z,28.65
2018-07-28T10:27:15.499Z,28.53
2018-07-28T10:29:42.656Z,28.33
2018-07-28T10:32:10.017Z,28.28
2018-07-28T10:34:37.264Z,28.36
2018-07-28T10:37:04.925Z,28.29
2018-07-28T10:39:32.128Z,28.24
2018-07-28T10:41:59.430Z,28.25
2018-07-28T10:44:26.636Z,28.23
2018-07-28T10:46:53.874Z,28.31
2018-07-28T10:49:21.064Z,28.50
2018-07-28T10:51:48.224Z,28.94
2018-07-28T10:54:15.465Z,29.17
2018-07-28T10:56:42.837Z,29.44
2018-07-28T10:59:10.092Z,29.89
2018-07-28T11:01:37.288Z,30.14
2018-07-28T11:04:04.812Z,29.92
2018-07-28T11:06:32.084Z,29.68
2018-07-28T11:08:59.433Z,29.51
2018-07-28T11:11:26.672Z,29.35
2018-07-28T11:13:53.940Z,29.26
2018-07-28T11:16:21.209Z,29.19
2018-07-28T11:18:48.560Z,29.26
2018-07-28T11:21:15.718Z,29.10
2018-07-28T11:24:00.917Z,28.92
2018-07-28T11:26:28.149Z,29.16
2018-07-28T11:28:55.387Z,29.44
2018-07-28T11:31:34.907Z,29.54
2018-07-28T11:34:13.811Z,29.60
2018-07-28T11:36:52.985Z,29.92
2018-07-28T11:39:31.783Z,29.96
2018-07-28T11:42:10.520Z,29.89
2018-07-28T11:44:48.846Z,30.01
2018-07-28T11:47:16.096Z,30.31
2018-07-28T11:49:43.519Z,30.71
2018-07-28T11:52:10.778Z,31.19
2018-07-28T11:54:38.145Z,31.48
2018-07-28T11:57:05.516Z,32.05
2018-07-28T11:59:32.979Z,32.33
2018-07-28T12:02:00.431Z,32.25
2018-07-28T12:04:27.650Z,31.81
2018-07-28T12:06:55.171Z,31.67
2018-07-28T12:09:22.396Z,31.08
2018-07-28T12:11:49.868Z,30.62
2018-07-28T12:14:17.158Z,30.47
2018-07-28T12:16:44.350Z,30.28
2018-07-28T12:19:11.716Z,29.92
2018-07-28T12:21:38.884Z,29.45
2018-07-28T12:24:06.400Z,28.73
2018-07-28T12:26:33.665Z,27.88
2018-07-28T12:29:00.814Z,27.35
2018-07-28T12:31:28.124Z,26.87
2018-07-28T12:33:55.389Z,26.90
2018-07-28T12:36:22.657Z,27.05
2018-07-28T12:38:49.945Z,27.40
2018-07-28T12:41:17.166Z,27.91
2018-07-28T12:43:44.328Z,28.41
2018-07-28T12:46:11.654Z,28.87
2018-07-28T12:48:38.878Z,28.60
2018-07-28T12:51:06.181Z,28.39
2018-07-28T12:53:33.445Z,28.51
2018-07-28T12:56:00.615Z,28.81
2018-07-28T12:58:27.834Z,29.01
2018-07-28T13:00:55.079Z,29.81
2018-07-28T13:03:22.267Z,30.63
2018-07-28T13:05:49.442Z,31.37
2018-07-28T13:08:16.668Z,31.63
2018-07-28T13:10:43.879Z,31.93
2018-07-28T13:13:11.173Z,31.97
2018-07-28T13:15:38.370Z,31.45
2018-07-28T13:18:05.626Z,31.21
2018-07-28T13:20:32.858Z,30.64
2018-07-28T13:23:00.136Z,30.20
2018-07-28T13:25:27.392Z,29.90
2018-07-28T13:27:54.600Z,29.68
2018-07-28T13:30:21.800Z,29.65
2018-07-28T13:32:50.629Z,29.34
2018-07-28T13:35:20.691Z,29.18
2018-07-28T13:37:47.996Z,28.99
2018-07-28T13:40:15.234Z,28.86
2018-07-28T13:42:42.516Z,28.68
2018-07-28T13:45:09.772Z,28.60
2018-07-28T13:47:36.993Z,28.54
2018-07-28T13:50:04.193Z,28.52
2018-07-28T13:52:31.389Z,28.33
2018-07-28T13:54:58.600Z,28.34
2018-07-28T13:57:25.823Z,28.14
2018-07-28T13:59:53.194Z,28.00
2018-07-28T14:02:20.483Z,27.90
2018-07-28T14:04:47.742Z,27.88
2018-07-28T14:07:15.074Z,27.82
2018-07-28T14:09:42.310Z,27.78
2018-07-28T14:12:09.748Z,27.72
2018-07-28T14:14:36.923Z,27.72
2018-07-28T14:17:04.252Z,27.62
2018-07-28T14:19:31.578Z,27.57
2018-07-28T14:21:58.816Z,27.54
2018-07-28T14:24:25.998Z,27.42
2018-07-28T14:26:53.275Z,27.28
2018-07-28T14:29:20.550Z,27.26
2018-07-28T14:31:47.942Z,27.06
2018-07-28T14:34:15.241Z,26.97
2018-07-28T14:36:42.441Z,26.91
2018-07-28T14:39:09.730Z,26.82
2018-07-28T14:41:37.159Z,26.88
2018-07-28T14:44:04.637Z,26.88
2018-07-28T14:46:31.890Z,26.87
2018-07-28T14:48:59.100Z,26.76
2018-07-28T14:51:26.318Z,26.83
2018-07-28T14:53:53.541Z,26.97
2018-07-28T14:56:20.817Z,26.93
2018-07-28T14:58:50.334Z,27.06
2018-07-28T15:01:17.555Z,27.27
2018-07-28T15:03:44.791Z,27.42
2018-07-28T15:06:11.970Z,27.36
2018-07-28T15:08:39.297Z,27.26
2018-07-28T15:11:06.594Z,27.17
2018-07-28T15:13:33.808Z,27.08
2018-07-28T15:16:02.851Z,27.02
2018-07-28T15:18:31.762Z,26.91
2018-07-28T15:20:58.972Z,26.86
2018-07-28T15:23:26.176Z,26.80
2018-07-28T15:25:53.397Z,26.68
2018-07-28T15:28:20.637Z,26.66
2018-07-28T15:30:47.802Z,26.45
2018-07-28T15:33:14.965Z,26.41
2018-07-28T15:35:42.221Z,26.42
2018-07-28T15:38:09.425Z,26.40
2018-07-28T15:40:36.627Z,26.40
2018-07-28T15:43:07.060Z,26.25
2018-07-28T15:45:34.668Z,26.12
2018-07-28T15:48:01.980Z,26.03
2018-07-28T15:50:29.233Z,25.99
2018-07-28T15:52:56.508Z,26.04
2018-07-28T15:55:23.761Z,26.02
2018-07-28T15:57:52.248Z,26.02
2018-07-28T16:00:19.567Z,25.98
2018-07-28T16:02:47.390Z,26.09
2018-07-28T16:05:14.681Z,26.03
2018-07-28T16:07:41.906Z,26.02
2018-07-28T16:10:09.110Z,25.98
2018-07-28T16:12:36.329Z,25.99
2018-07-28T16:15:04.145Z,26.01
2018-07-28T16:17:31.414Z,25.98
2018-07-28T16:19:58.590Z,25.94
2018-07-28T16:22:25.837Z,25.90
2018-07-28T16:24:53.013Z,25.75
2018-07-28T16:27:20.308Z,25.71
2018-07-28T16:29:47.536Z,25.62
2018-07-28T16:32:14.764Z,25.62
2018-07-28T16:34:41.961Z,25.59
2018-07-28T16:37:09.215Z,25.57
2018-07-28T16:39:36.474Z,25.53
2018-07-28T16:42:03.837Z,25.51
2018-07-28T16:44:31.068Z,25.52
2018-07-28T16:46:58.302Z,25.52
2018-07-28T16:49:25.563Z,25.49
2018-07-28T16:51:52.802Z,25.54
2018-07-28T16:54:20.081Z,25.50
2018-07-28T16:56:47.358Z,25.51
2018-07-28T16:59:14.629Z,25.52
2018-07-28T17:01:41.850Z,25.58
2018-07-28T17:04:09.097Z,25.57
2018-07-28T17:06:36.421Z,25.54
2018-07-28T17:09:06.486Z,25.50
2018-07-28T17:11:33.794Z,25.41
2018-07-28T17:14:01.077Z,25.36
2018-07-28T17:16:28.292Z,25.32
2018-07-28T17:18:55.493Z,25.32
2018-07-28T17:21:22.721Z,25.30
2018-07-28T17:23:50.000Z,25.21
2018-07-28T17:26:17.225Z,25.20
2018-07-28T17:28:44.472Z,25.18
2018-07-28T17:31:11.701Z,25.17
2018-07-28T17:33:38.915Z,25.12
2018-07-28T17:36:06.160Z,25.12
2018-07-28T17:38:33.540Z,25.15
2018-07-28T17:41:00.861Z,25.15
2018-07-28T17:43:28.021Z,25.19
2018-07-28T17:45:55.329Z,25.18
2018-07-28T17:48:22.597Z,25.14
2018-07-28T17:50:49.837Z,25.13
2018-07-28T17:53:17.109Z,25.14
2018-07-28T17:55:44.340Z,25.15
2018-07-28T17:58:11.599Z,25.16
2018-07-28T18:00:38.810Z,25.20
2018-07-28T18:03:06.010Z,25.15
2018-07-28T18:05:33.239Z,25.13
2018-07-28T18:08:00.419Z,25.13
2018-07-28T18:10:27.657Z,25.06
2018-07-28T18:12:54.865Z,25.09
2018-07-28T18:15:22.032Z,25.04
2018-07-28T18:17:49.315Z,25.03
2018-07-28T18:20:16.529Z,24.95
2018-07-28T18:22:43.778Z,24.96
2018-07-28T18:25:10.973Z,24.91
2018-07-28T18:27:38.190Z,24.90
2018-07-28T18:30:05.480Z,24.82
2018-07-28T18:32:32.711Z,24.81
2018-07-28T18:34:59.965Z,24.82
2018-07-28T18:37:27.233Z,24.79
2018-07-28T18:39:54.880Z,24.74
2018-07-28T18:42:22.057Z,24.72
2018-07-28T18:44:49.250Z,24.66
2018-07-28T18:47:16.468Z,24.63
2018-07-28T18:49:43.751Z,24.63
2018-07-28T18:52:11.226Z,24.62
2018-07-28T18:54:38.482Z,24.60
2018-07-28T18:57:05.730Z,24.54
2018-07-28T18:59:32.958Z,24.58
2018-07-28T19:02:00.226Z,24.62
2018-07-28T19:04:27.404Z,24.57
2018-07-28T19:06:54.646Z,24.53
2018-07-28T19:09:27.702Z,24.51
2018-07-28T19:11:55.571Z,24.52
2018-07-28T19:14:28.674Z,24.41
2018-07-28T19:16:55.872Z,24.34
2018-07-28T19:19:23.094Z,24.34
2018-07-28T19:21:50.322Z,24.30
2018-07-28T19:24:17.582Z,24.26
2018-07-28T19:26:44.817Z,24.23
2018-07-28T19:29:17.940Z,24.19
2018-07-28T19:31:45.317Z,24.12
2018-07-28T19:34:12.574Z,24.07
2018-07-28T19:36:45.600Z,24.11
2018-07-28T19:39:12.868Z,24.10
2018-07-28T19:42:50.062Z,24.03
2018-07-28T19:45:17.319Z,23.94
2018-07-28T19:47:44.640Z,23.85
2018-07-28T19:50:11.887Z,23.83
2018-07-28T19:52:39.211Z,23.80
2018-07-28T19:55:06.450Z,23.83
2018-07-28T19:57:33.783Z,23.83
2018-07-28T20:00:01.059Z,23.82
2018-07-28T20:02:28.354Z,23.67
2018-07-28T20:04:55.574Z,23.68
2018-07-28T20:07:22.785Z,23.63
2018-07-28T20:09:50.069Z,23.34
2018-07-28T20:12:17.269Z,23.20
2018-07-28T20:14:44.947Z,23.04
2018-07-28T20:17:12.125Z,23.03
2018-07-28T20:19:39.365Z,23.09
2018-07-28T20:22:06.610Z,23.18
2018-07-28T20:24:33.798Z,23.18
2018-07-28T20:27:01.074Z,23.15
2018-07-28T20:29:28.380Z,23.16
2018-07-28T20:31:55.598Z,23.13
2018-07-28T20:34:22.788Z,23.11
2018-07-28T20:36:50.059Z,23.04
2018-07-28T20:39:17.340Z,23.04
2018-07-28T20:41:44.572Z,22.94
2018-07-28T20:44:11.785Z,22.86
2018-07-28T20:46:39.035Z,22.76
2018-07-28T20:49:06.378Z,22.71
2018-07-28T20:51:33.586Z,22.61
2018-07-28T20:54:00.902Z,22.56
2018-07-28T20:56:28.050Z,22.55
2018-07-28T20:58:55.268Z,22.57
2018-07-28T21:01:22.578Z,22.58
2018-07-28T21:03:49.839Z,22.57
2018-07-28T21:06:17.102Z,22.59
2018-07-28T21:08:44.352Z,22.59
2018-07-28T21:11:11.549Z,22.56
2018-07-28T21:13:38.795Z,22.65
2018-07-28T21:16:06.045Z,22.68
2018-07-28T21:18:33.285Z,22.71
2018-07-28T21:21:00.504Z,22.69
2018-07-28T21:23:27.704Z,22.65
2018-07-28T21:25:54.957Z,22.76
2018-07-28T21:28:22.196Z,22.70
2018-07-28T21:30:49.436Z,22.64
2018-07-28T21:33:16.824Z,22.58
2018-07-28T21:35:44.030Z,22.57
2018-07-28T21:38:11.239Z,22.57
2018-07-28T21:40:38.542Z,22.54
2018-07-28T21:43:05.768Z,22.46
2018-07-28T21:45:33.021Z,22.44
2018-07-28T21:48:00.204Z,22.39
2018-07-28T21:50:27.517Z,22.36
2018-07-28T21:52:54.663Z,22.23
2018-07-28T21:55:21.968Z,22.21
2018-07-28T21:57:49.321Z,22.12
2018-07-28T22:00:16.540Z,22.06
2018-07-28T22:02:43.795Z,22.05
2018-07-28T22:05:10.995Z,22.00
2018-07-28T22:07:38.106Z,22.04
2018-07-28T22:10:05.357Z,22.18
2018-07-28T22:12:32.639Z,22.22
2018-07-28T22:14:59.816Z,22.23
2018-07-28T22:17:27.115Z,22.24
2018-07-28T22:19:54.315Z,22.31
2018-07-28T22:22:21.588Z,22.33
2018-07-28T22:24:48.900Z,22.13
2018-07-28T22:27:16.106Z,22.11
2018-07-28T22:30:14.778Z,21.99
2018-07-28T22:32:42.047Z,21.99
2018-07-28T22:35:09.486Z,22.01
2018-07-28T22:37:36.852Z,21.96
2018-07-28T22:40:04.184Z,21.93
2018-07-28T22:42:44.511Z,21.96
2018-07-28T22:45:11.688Z,21.90
2018-07-28T22:47:38.983Z,21.86
2018-07-28T22:50:06.728Z,21.83
2018-07-28T22:52:33.947Z,21.75
2018-07-28T22:55:01.143Z,21.65
2018-07-28T22:57:28.473Z,21.67
2018-07-28T22:59:55.717Z,21.74
2018-07-28T23:02:22.919Z,21.65
2018-07-28T23:04:50.220Z,21.68
2018-07-28T23:07:17.497Z,21.64
2018-07-28T23:09:44.682Z,21.57
2018-07-28T23:12:11.977Z,21.53
2018-07-28T23:14:39.186Z,21.44
2018-07-28T23:17:06.459Z,21.45
2018-07-28T23:19:33.764Z,21.45
2018-07-28T23:22:00.962Z,21.39
2018-07-28T23:24:28.178Z,21.37
2018-07-28T23:26:55.456Z,21.36
2018-07-28T23:29:22.639Z,21.39
2018-07-28T23:31:49.969Z,21.40
2018-07-28T23:34:17.226Z,21.31
2018-07-28T23:36:44.480Z,21.30
2018-07-28T23:39:11.673Z,21.27
2018-07-28T23:41:39.027Z,21.30
2018-07-28T23:44:06.288Z,21.25
2018-07-28T23:46:33.669Z,21.23
2018-07-28T23:49:00.863Z,21.22
2018-07-28T23:51:28.063Z,21.15
2018-07-28T23:53:55.291Z,21.19
2018-07-28T23:56:22.488Z,21.11
2018-07-28T23:58:49.757Z,21.08
